Roxana, Illinois
Current Conditions -  °F | °C
As of 7:50 PM on Thursday 18 Dec 2014 (Local Time) from KALN Reporting Station
Overcast Overcast  
Wind Chill: 25°   Ceiling: 3500
Heat Index: 32°   Visibility: 10mi
Dew Point: 27°   Wind: 8mph
Humidity: 80%   Direction: 30°NNE
Pressure: 30.29"   Gusts: NA
Location:  38.85°N, 90.08°W
Report Text: KALN 190150Z 03007KT 10SM OVC035 00/M03 A3029
Loading
Personal Weather Stations






























Interactive Weather Map New forecast layout! Learn more

10-Day Weather Forecast

Advertisements
Track Severe Weather on mobile